Waterville, ME (04901)

10:43 AM EST on February 14, 2016 (GMT -0500)
Waterville Maine - Silver Street | | Change Station
CLOSE
Current Station
Personal Weather Station
Location: Waterville, ME
Elevation: 125 ft
Nearby Weather Stations

Elev 125 ft 44.54 °N, 69.64 °W | Updated 32 seconds ago

Clear
Clear
1.8 °F
Feels Like 2 °F
N
1.1
Wind Variable Wind from SSW
Gusts 2.5 mph

Today
High -- | Low -- °F
--% Chance of Precip.
Yesterday
High -- | Low -- °F
Precip. -- in
Pressure 30.34 in
Visibility 10.0 miles
Clouds Clear
Windchill 2 °F
Dew Point -25 °F
Humidity 26%
Rainfall 0.00 in
Snow Depth Not available.
6:40 AM 5:05 PM
Waxing Crescent, 42% visible
METAR KWVL 141456Z AUTO 31006KT 10SM CLR M18/M28 A3021 RMK AO2 SLP274 T11781283 51017 FZRANO
Pressure 30.34 in
Visibility 10.0 miles
Clouds Clear
Windchill 2 °F
Dew Point -25 °F
Humidity 26%
Rainfall 0.00 in
Snow Depth Not available.
6:40 AM 5:05 PM
Waxing Crescent, 42% visible
METAR KWVL 141456Z AUTO 31006KT 10SM CLR M18/M28 A3021 RMK AO2 SLP274 T11781283 51017 FZRANO

10-Day Weather Forecast

Almanac

Astronomy

Feb. 14, 2016 Rise Set
Actual Time
Civil Twilight
Nautical Twilight
Astronomical Twilight
Moon
Length of Visible Light
Length of Day
Tomorrow will be .
, % of the Moon is Illuminated

Today's Extremes

State Highs State Lows

Community

WunderPhotos

Upload Photos

1,892,802 photos uploaded!

WunderBlog® & News

Nearby

Air Quality

  Air Quality AQ Index Pollutant
Not available.

Snow Depth

Station Depth Elevation

Earthquake Activity

City Distance Mag. Time & Date
Minimum magnitude displayed is 2.5.

Coastal Water Temperatures

Place Temperature

Stations

Nearby Weather Stations

Station Location Temp. Windchill Dew Point Humidity Wind Precip. Elev Updated Type
                   

Watches & Warnings

There are currently no watches in effect.